National Weather Service Raw Text Product

Displaying AFOS PIL: TAFMCW Received: 2017-08-13 17:20 UTC


499 
FTUS43 KDMX 131720
TAFMCW
TAF
KMCW 131720Z 1318/1418 19007KT P6SM FEW090 BKN110
     FM132300 14007KT P6SM BKN130
     FM140500 15007KT P6SM VCTS BKN050CB
     FM141200 17007KT P6SM BKN020=